createdAt,value
2018-02-21T00:03:09.583Z,51.6
2018-02-21T00:19:56.284Z,51.2
2018-02-21T00:36:42.925Z,51.2
2018-02-21T00:53:28.683Z,50.8
2018-02-21T01:10:15.455Z,50.4
2018-02-21T01:27:01.793Z,50.0
2018-02-21T01:43:47.784Z,49.6
2018-02-21T02:00:34.420Z,49.2
2018-02-21T02:17:20.078Z,49.2
2018-02-21T02:34:06.872Z,49.2
2018-02-21T02:50:53.113Z,48.8
2018-02-21T03:07:39.330Z,48.0
2018-02-21T03:24:25.290Z,48.0
2018-02-21T03:41:11.148Z,48.0
2018-02-21T03:57:57.274Z,47.6
2018-02-21T04:14:43.275Z,47.6
2018-02-21T04:31:30.119Z,47.2
2018-02-21T04:48:15.145Z,47.2
2018-02-21T05:05:01.316Z,47.2
2018-02-21T05:21:46.858Z,46.8
2018-02-21T05:38:32.839Z,46.8
2018-02-21T05:55:18.473Z,46.4
2018-02-21T06:12:04.328Z,46.0
2018-02-21T06:28:50.286Z,46.0
2018-02-21T06:45:36.497Z,46.0
2018-02-21T07:02:22.014Z,45.6
2018-02-21T07:19:07.626Z,46.4
2018-02-21T07:35:53.629Z,47.2
2018-02-21T07:52:40.536Z,47.2
2018-02-21T08:09:24.720Z,46.8
2018-02-21T08:26:10.301Z,46.8
2018-02-21T08:42:56.181Z,47.2
2018-02-21T08:59:42.965Z,46.8
2018-02-21T09:16:28.454Z,46.8
2018-02-21T09:33:15.677Z,46.8
2018-02-21T09:50:01.916Z,46.8
2018-02-21T10:06:48.775Z,46.8
2018-02-21T10:23:35.986Z,46.8
2018-02-21T10:40:22.063Z,47.2
2018-02-21T10:57:09.436Z,46.4
2018-02-21T11:13:57.357Z,46.8
2018-02-21T11:30:43.265Z,46.8
2018-02-21T11:47:31.205Z,46.0
2018-02-21T12:04:18.718Z,46.0
2018-02-21T12:21:06.780Z,46.0
2018-02-21T12:37:54.815Z,46.0
2018-02-21T12:54:42.986Z,46.0
2018-02-21T13:11:31.330Z,46.0
2018-02-21T13:28:19.474Z,46.0
2018-02-21T13:45:07.479Z,46.4
2018-02-21T14:01:55.566Z,46.4
2018-02-21T14:18:43.755Z,46.4
2018-02-21T14:35:31.772Z,46.4
2018-02-21T14:52:19.639Z,46.4
2018-02-21T15:09:08.228Z,46.8
2018-02-21T15:25:56.599Z,46.8
2018-02-21T15:42:43.330Z,46.8
2018-02-21T15:59:31.195Z,46.8
2018-02-21T16:16:18.985Z,46.8
2018-02-21T16:33:06.965Z,46.8
2018-02-21T16:49:54.946Z,46.8
2018-02-21T17:06:42.715Z,46.0
2018-02-21T17:23:31.199Z,46.0
2018-02-21T17:40:20.258Z,46.8
2018-02-21T17:57:07.724Z,46.8
2018-02-21T18:13:53.629Z,46.8
2018-02-21T18:30:40.958Z,46.4
2018-02-21T18:47:28.475Z,46.4
2018-02-21T19:04:15.989Z,46.4
2018-02-21T19:21:02.979Z,47.2
2018-02-21T19:37:49.792Z,47.6
2018-02-21T19:54:37.066Z,46.4
2018-02-21T20:11:23.576Z,46.4
2018-02-21T20:28:09.800Z,47.6
2018-02-21T20:44:56.636Z,48.4
2018-02-21T21:01:43.303Z,48.8
2018-02-21T21:18:29.391Z,49.2
2018-02-21T21:35:16.903Z,49.2
2018-02-21T21:52:03.279Z,49.6
2018-02-21T22:08:49.579Z,48.8
2018-02-21T22:25:36.296Z,48.4
2018-02-21T22:42:22.424Z,48.4
2018-02-21T22:59:09.548Z,48.0
2018-02-21T23:15:55.609Z,47.2
2018-02-21T23:32:41.920Z,46.8
2018-02-21T23:49:28.512Z,46.8
